createdAt,value
2017-04-09T08:38:03.573Z,65
2017-04-09T08:39:05.010Z,110
2017-04-09T08:40:06.443Z,110
2017-04-09T08:41:07.879Z,110
2017-04-09T08:42:09.307Z,110
2017-04-09T08:43:10.737Z,110
2017-04-09T08:44:12.169Z,115
2017-04-09T08:45:13.608Z,115
2017-04-09T08:46:15.045Z,115
2017-04-09T08:47:16.469Z,110
2017-04-09T08:48:17.906Z,115
2017-04-09T08:49:19.334Z,110
2017-04-09T08:50:20.790Z,110
2017-04-09T08:51:22.226Z,115
2017-04-09T08:52:23.658Z,115
2017-04-09T08:53:25.096Z,115
2017-04-09T08:54:26.536Z,115
2017-04-09T08:55:27.987Z,115
2017-04-09T08:56:29.430Z,120
2017-04-09T08:57:30.865Z,115
2017-04-09T08:58:32.339Z,115
2017-04-09T08:59:33.799Z,115
2017-04-09T09:00:35.221Z,120
2017-04-09T09:01:36.659Z,115
2017-04-09T09:02:38.089Z,120
2017-04-09T09:03:39.529Z,120
2017-04-09T09:04:40.963Z,125
2017-04-09T09:05:42.407Z,120
2017-04-09T09:06:43.837Z,120
2017-04-09T09:07:45.274Z,120
2017-04-09T09:08:46.709Z,120
2017-04-09T09:09:48.141Z,120
2017-04-09T09:10:49.578Z,120
2017-04-09T09:11:51.011Z,125
2017-04-09T09:12:52.445Z,125
2017-04-09T09:13:53.883Z,125
2017-04-09T09:14:55.317Z,125
2017-04-09T09:15:56.749Z,125
2017-04-09T09:16:58.178Z,125
2017-04-09T09:17:59.622Z,125
2017-04-09T09:19:01.055Z,125
2017-04-09T09:20:02.487Z,125
2017-04-09T09:21:03.914Z,130
2017-04-09T09:22:05.353Z,130
2017-04-09T09:23:06.788Z,130
2017-04-09T09:24:08.220Z,130
2017-04-09T09:25:09.656Z,130
2017-04-09T09:26:11.087Z,130
2017-04-09T09:27:12.520Z,130
2017-04-09T09:28:13.962Z,130
2017-04-09T09:29:15.387Z,130
2017-04-09T09:30:16.816Z,135
2017-04-09T09:31:18.257Z,135
2017-04-09T09:32:19.694Z,135
2017-04-09T09:33:21.132Z,135
2017-04-09T09:34:22.563Z,135
2017-04-09T09:35:23.996Z,135
2017-04-09T09:36:25.437Z,135
2017-04-09T09:37:26.866Z,135
2017-04-09T09:38:28.308Z,135
2017-04-09T09:39:29.749Z,135
2017-04-09T09:40:31.180Z,135
2017-04-09T09:41:32.617Z,135
2017-04-09T09:42:34.051Z,135
2017-04-09T09:43:35.492Z,135
2017-04-09T09:44:36.924Z,135
2017-04-09T09:45:38.437Z,140
2017-04-09T09:46:39.876Z,140
2017-04-09T09:47:41.312Z,140
2017-04-09T09:48:42.768Z,140
2017-04-09T09:49:44.206Z,140
2017-04-09T09:50:45.654Z,140
2017-04-09T09:51:47.091Z,140
2017-04-09T09:52:48.524Z,140
2017-04-09T09:53:49.966Z,140
2017-04-09T09:54:51.923Z,140
2017-04-09T09:55:53.355Z,145
2017-04-09T09:56:54.786Z,145
2017-04-09T09:57:56.239Z,145
2017-04-09T09:58:57.674Z,145
2017-04-09T10:00:00.670Z,150
2017-04-09T10:01:02.121Z,150
2017-04-09T10:02:03.555Z,150
2017-04-09T10:03:04.991Z,150
2017-04-09T10:04:06.429Z,155
2017-04-09T10:05:07.865Z,155
2017-04-09T10:06:09.302Z,155
2017-04-09T10:07:10.738Z,155
2017-04-09T10:08:12.176Z,160
2017-04-09T10:09:13.612Z,160
2017-04-09T10:10:15.049Z,160
2017-04-09T10:11:16.477Z,160
2017-04-09T10:12:17.904Z,160
2017-04-09T10:13:19.339Z,160
2017-04-09T10:14:20.775Z,160
2017-04-09T10:15:22.212Z,165
2017-04-09T10:16:23.651Z,165
2017-04-09T10:17:25.085Z,170
2017-04-09T10:18:26.524Z,170
2017-04-09T10:19:27.966Z,170
2017-04-09T10:20:29.407Z,170
2017-04-09T10:21:30.850Z,170
2017-04-09T10:22:32.283Z,170
2017-04-09T10:23:33.721Z,170
2017-04-09T10:24:35.165Z,170
2017-04-09T10:25:36.602Z,170
2017-04-09T10:26:38.087Z,175
2017-04-09T10:27:39.523Z,175
2017-04-09T10:28:40.961Z,180
2017-04-09T10:29:42.401Z,185
2017-04-09T10:30:43.847Z,180
2017-04-09T10:31:45.294Z,190
2017-04-09T10:32:46.782Z,185
2017-04-09T10:33:48.222Z,185
2017-04-09T10:34:49.659Z,185
2017-04-09T10:35:51.095Z,195
2017-04-09T10:36:52.546Z,190
2017-04-09T10:37:54.022Z,190
2017-04-09T10:38:55.456Z,190
2017-04-09T10:39:56.890Z,190
2017-04-09T10:40:58.356Z,190
2017-04-09T10:41:59.798Z,190
2017-04-09T10:43:01.239Z,195
2017-04-09T10:44:02.685Z,195
2017-04-09T10:45:04.125Z,195
2017-04-09T10:46:05.570Z,200
2017-04-09T10:47:07.006Z,200
2017-04-09T10:48:08.459Z,200
2017-04-09T10:49:09.901Z,205
2017-04-09T10:50:11.348Z,205
2017-04-09T10:51:12.786Z,205
2017-04-09T10:52:14.227Z,210
2017-04-09T10:53:15.661Z,210
2017-04-09T10:54:17.097Z,210
2017-04-09T10:55:18.551Z,210
2017-04-09T10:56:19.988Z,220
2017-04-09T10:57:21.427Z,215
2017-04-09T10:58:22.866Z,215
2017-04-09T10:59:24.303Z,220
2017-04-09T11:00:25.745Z,220
2017-04-09T11:01:27.182Z,220
2017-04-09T11:02:28.623Z,225
2017-04-09T11:03:30.111Z,225
2017-04-09T11:04:31.551Z,225
2017-04-09T11:05:32.989Z,225
2017-04-09T11:06:34.451Z,230
2017-04-09T11:07:35.882Z,230
2017-04-09T11:08:37.321Z,230
2017-04-09T11:09:38.808Z,235
2017-04-09T11:10:40.245Z,235
2017-04-09T11:11:41.689Z,235
2017-04-09T11:12:43.126Z,240
2017-04-09T11:13:44.568Z,240
2017-04-09T11:14:46.007Z,240
2017-04-09T11:15:47.451Z,240
2017-04-09T11:16:48.893Z,245
2017-04-09T11:17:50.334Z,245
2017-04-09T11:18:51.771Z,245
2017-04-09T11:19:53.211Z,250
2017-04-09T11:20:54.655Z,250
2017-04-09T11:21:56.091Z,250
2017-04-09T11:22:57.530Z,255
2017-04-09T11:23:58.991Z,255
2017-04-09T11:25:00.431Z,255
2017-04-09T11:26:01.870Z,255
2017-04-09T11:27:03.312Z,260
2017-04-09T11:28:04.744Z,260
2017-04-09T11:29:06.193Z,260
2017-04-09T11:30:07.634Z,265
2017-04-09T11:31:09.075Z,265
2017-04-09T11:32:10.522Z,265
2017-04-09T11:33:11.968Z,270
2017-04-09T11:34:13.403Z,270
2017-04-09T11:35:14.842Z,270
2017-04-09T11:36:16.277Z,270
2017-04-09T11:37:17.719Z,270
2017-04-09T11:38:19.156Z,270
2017-04-09T11:39:20.646Z,270
2017-04-09T11:40:22.099Z,275
2017-04-09T11:41:23.542Z,275
2017-04-09T11:42:24.987Z,275
2017-04-09T11:43:26.429Z,270
2017-04-09T11:44:27.873Z,280
2017-04-09T11:45:29.303Z,280
2017-04-09T11:46:30.743Z,280
2017-04-09T11:47:32.187Z,280
2017-04-09T11:48:33.622Z,285
2017-04-09T11:49:35.064Z,285
2017-04-09T11:50:36.501Z,285
2017-04-09T11:51:37.968Z,285
2017-04-09T11:52:39.406Z,285
2017-04-09T11:53:40.857Z,285
2017-04-09T11:54:42.309Z,290
2017-04-09T11:55:43.758Z,290
2017-04-09T11:56:45.296Z,290
2017-04-09T11:57:46.737Z,295
2017-04-09T11:58:48.190Z,290
2017-04-09T11:59:49.631Z,290
2017-04-09T12:00:51.099Z,295
2017-04-09T12:01:52.551Z,295
2017-04-09T12:02:53.989Z,295
2017-04-09T12:03:55.437Z,300
2017-04-09T12:04:56.884Z,300
2017-04-09T12:05:58.327Z,305
2017-04-09T12:06:59.764Z,300
2017-04-09T12:08:01.197Z,305
2017-04-09T12:09:02.645Z,305
2017-04-09T12:10:04.086Z,310
2017-04-09T12:11:05.528Z,310
2017-04-09T12:12:06.968Z,310
2017-04-09T12:13:08.427Z,310
2017-04-09T12:14:09.862Z,310
2017-04-09T12:15:11.302Z,315
2017-04-09T12:16:12.746Z,320
2017-04-09T12:17:14.183Z,320
2017-04-09T12:18:15.624Z,320
2017-04-09T12:19:17.064Z,325
2017-04-09T12:20:18.499Z,325
2017-04-09T12:21:19.939Z,330
2017-04-09T12:22:21.374Z,330
2017-04-09T12:23:22.811Z,330
2017-04-09T12:24:24.308Z,330
2017-04-09T12:25:25.719Z,330
2017-04-09T12:26:27.171Z,330
2017-04-09T12:27:28.609Z,335
2017-04-09T12:28:30.051Z,340
2017-04-09T12:29:31.488Z,340
2017-04-09T12:30:32.936Z,345
2017-04-09T12:31:34.387Z,340
2017-04-09T12:32:35.828Z,340
2017-04-09T12:33:37.270Z,345
2017-04-09T12:34:38.711Z,345
2017-04-09T12:35:40.146Z,350
2017-04-09T12:36:41.587Z,350
2017-04-09T12:37:43.025Z,360
2017-04-09T12:38:44.467Z,360
2017-04-09T12:39:45.911Z,360
2017-04-09T12:40:47.347Z,360
2017-04-09T12:41:48.786Z,360
2017-04-09T12:42:50.264Z,355
2017-04-09T12:43:51.700Z,360
2017-04-09T12:44:53.110Z,360
2017-04-09T12:45:54.549Z,360
2017-04-09T12:46:55.990Z,360
2017-04-09T12:47:57.430Z,360
2017-04-09T12:48:58.875Z,365
2017-04-09T12:50:00.316Z,370
2017-04-09T12:51:01.754Z,365
2017-04-09T12:52:03.206Z,365
2017-04-09T12:53:04.648Z,365
2017-04-09T12:54:06.087Z,365
2017-04-09T12:55:07.532Z,365
2017-04-09T12:56:08.969Z,365
2017-04-09T12:57:10.406Z,365
2017-04-09T12:58:11.851Z,370
2017-04-09T12:59:13.284Z,365
2017-04-09T13:00:14.757Z,365
2017-04-09T13:01:16.223Z,365
2017-04-09T13:02:17.661Z,365
2017-04-09T13:03:19.103Z,370
2017-04-09T13:04:20.546Z,365
2017-04-09T13:05:21.987Z,370
2017-04-09T13:06:23.427Z,370
2017-04-09T13:07:24.874Z,370
2017-04-09T13:08:26.318Z,370
2017-04-09T13:09:27.754Z,365
2017-04-09T13:10:29.200Z,370
2017-04-09T13:11:30.672Z,365
2017-04-09T13:12:32.110Z,370
2017-04-09T13:13:33.550Z,365
2017-04-09T13:14:34.982Z,370
2017-04-09T13:15:36.444Z,375
2017-04-09T13:16:37.882Z,365
2017-04-09T13:17:39.332Z,365
2017-04-09T13:18:40.760Z,365
2017-04-09T13:19:42.206Z,365
2017-04-09T13:20:43.655Z,360
2017-04-09T13:21:45.085Z,365
2017-04-09T13:22:46.525Z,360
2017-04-09T13:23:47.969Z,370
2017-04-09T13:24:49.417Z,870
2017-04-09T13:25:50.869Z,3290
2017-04-09T13:26:52.338Z,4705
2017-04-09T13:27:53.798Z,4705
2017-04-09T13:28:55.246Z,4755
2017-04-09T13:29:56.687Z,4785
2017-04-09T13:30:58.123Z,4745
2017-04-09T13:31:59.569Z,4715
2017-04-09T13:33:01.023Z,4665
2017-04-09T13:34:02.457Z,4725
2017-04-09T13:35:03.901Z,4700
2017-04-09T13:36:05.340Z,4685
2017-04-09T13:37:06.786Z,4735
2017-04-09T13:38:08.251Z,4355
2017-04-09T13:39:09.696Z,4005
2017-04-09T13:40:11.139Z,3130
2017-04-09T13:41:12.583Z,2225
2017-04-09T13:42:14.025Z,1485
2017-04-09T13:43:15.469Z,1805
2017-04-09T13:44:16.920Z,1790
2017-04-09T13:45:18.385Z,870
2017-04-09T13:46:19.835Z,885
2017-04-09T13:47:21.282Z,700
2017-04-09T13:48:22.737Z,990
2017-04-09T13:49:24.187Z,625
2017-04-09T13:50:25.629Z,1235
2017-04-09T13:51:27.079Z,1470
2017-04-09T13:52:28.530Z,940
2017-04-09T13:53:29.980Z,855
2017-04-09T13:54:31.422Z,355
2017-04-09T13:55:32.872Z,310
2017-04-09T13:56:34.320Z,305
2017-04-09T13:57:35.802Z,305
2017-04-09T13:58:37.220Z,305
2017-04-09T13:59:38.671Z,305
2017-04-09T14:00:40.137Z,305
2017-04-09T14:01:41.576Z,305
2017-04-09T14:02:43.019Z,310
2017-04-09T14:03:44.473Z,300
2017-04-09T14:04:45.930Z,305
2017-04-09T14:05:47.367Z,300
2017-04-09T14:06:48.818Z,295
2017-04-09T14:07:50.259Z,290
2017-04-09T14:08:51.701Z,285
2017-04-09T14:09:53.142Z,285
2017-04-09T14:10:54.588Z,280
2017-04-09T14:11:56.037Z,275
2017-04-09T14:12:57.486Z,275
2017-04-09T14:13:58.928Z,270
2017-04-09T14:15:00.407Z,270
2017-04-09T14:16:01.852Z,270
2017-04-09T14:17:03.294Z,270
2017-04-09T14:18:04.741Z,265
2017-04-09T14:19:06.183Z,265
2017-04-09T14:20:07.622Z,260
2017-04-09T14:21:09.067Z,255
2017-04-09T14:22:10.511Z,255
2017-04-09T14:23:11.941Z,255
2017-04-09T14:24:13.400Z,255
2017-04-09T14:25:14.844Z,250
2017-04-09T14:26:16.277Z,250
2017-04-09T14:27:17.732Z,245
2017-04-09T14:28:19.185Z,245
2017-04-09T14:29:20.627Z,240
2017-04-09T14:30:22.065Z,235
2017-04-09T14:31:23.510Z,235
2017-04-09T14:32:24.953Z,235
2017-04-09T14:33:26.393Z,230
2017-04-09T14:34:27.834Z,230
2017-04-09T14:35:29.275Z,225
2017-04-09T14:36:30.713Z,225
2017-04-09T14:37:32.153Z,220
2017-04-09T14:38:33.589Z,225
2017-04-09T14:39:35.035Z,220
2017-04-09T14:40:36.477Z,220
2017-04-09T14:41:37.919Z,220
2017-04-09T14:42:39.358Z,220
2017-04-09T14:43:40.794Z,215
2017-04-09T14:44:42.243Z,215
2017-04-09T14:45:43.705Z,220
2017-04-09T14:46:45.127Z,210
2017-04-09T14:47:46.562Z,225
2017-04-09T14:48:48.010Z,260
2017-04-09T14:49:49.447Z,240
2017-04-09T14:50:50.894Z,240
2017-04-09T14:51:52.332Z,255
2017-04-09T14:52:53.775Z,215
2017-04-09T14:53:55.225Z,205
2017-04-09T14:54:56.664Z,200
2017-04-09T14:55:58.100Z,195
2017-04-09T14:56:59.545Z,190
2017-04-09T14:58:00.993Z,190
2017-04-09T14:59:02.434Z,190
2017-04-09T15:00:03.875Z,185
2017-04-09T15:01:05.319Z,185
2017-04-09T15:02:06.755Z,185
2017-04-09T15:03:08.197Z,180
2017-04-09T15:04:09.639Z,180
2017-04-09T15:05:11.075Z,180
2017-04-09T15:06:12.517Z,175
2017-04-09T15:07:13.956Z,175
2017-04-09T15:08:15.403Z,170
2017-04-09T15:09:16.844Z,170
2017-04-09T15:10:18.286Z,170
2017-04-09T15:11:19.728Z,170
2017-04-09T15:12:21.179Z,165
2017-04-09T15:13:22.620Z,170
2017-04-09T15:14:24.060Z,165
2017-04-09T15:15:25.503Z,160
2017-04-09T15:16:26.934Z,160
2017-04-09T15:17:28.377Z,160
2017-04-09T15:18:29.813Z,165
2017-04-09T15:19:31.250Z,160
2017-04-09T15:20:32.699Z,155
2017-04-09T15:21:34.135Z,155
2017-04-09T15:22:35.575Z,155
2017-04-09T15:23:37.012Z,155
2017-04-09T15:24:38.458Z,155
2017-04-09T15:25:39.897Z,155
2017-04-09T15:26:41.359Z,155
2017-04-09T15:27:42.797Z,185
2017-04-09T15:28:44.250Z,175
2017-04-09T15:29:45.689Z,170
2017-04-09T15:30:47.141Z,260
2017-04-09T15:31:48.587Z,270
2017-04-09T15:32:50.026Z,165
2017-04-09T15:33:52.111Z,150
2017-04-09T15:34:53.553Z,155
2017-04-09T15:35:54.994Z,170
2017-04-09T15:36:56.423Z,180
2017-04-09T15:37:57.867Z,145
2017-04-09T15:38:59.309Z,140
2017-04-09T15:40:00.749Z,140
2017-04-09T15:41:02.196Z,135
2017-04-09T15:42:03.634Z,135
2017-04-09T15:43:05.071Z,135
2017-04-09T15:44:06.510Z,145
2017-04-09T15:45:07.952Z,145
2017-04-09T15:46:09.389Z,130
2017-04-09T15:47:10.834Z,130
2017-04-09T15:48:12.269Z,125
2017-04-09T15:49:13.701Z,125
2017-04-09T15:50:15.163Z,125
2017-04-09T15:51:16.598Z,120
2017-04-09T15:52:18.041Z,120
2017-04-09T15:53:19.484Z,120
2017-04-09T15:54:20.927Z,120
2017-04-09T15:55:22.930Z,130
2017-04-09T15:56:24.368Z,120
2017-04-09T15:57:25.803Z,115
2017-04-09T15:58:27.242Z,80
2017-04-09T15:59:28.684Z,115
2017-04-09T16:00:30.125Z,110
2017-04-09T16:01:31.565Z,110
2017-04-09T16:02:33.018Z,110
2017-04-09T16:03:34.432Z,110
2017-04-09T16:04:35.871Z,110
2017-04-09T16:05:37.340Z,110
2017-04-09T16:06:38.787Z,105
2017-04-09T16:07:40.217Z,105
2017-04-09T16:08:41.658Z,105
2017-04-09T16:09:43.100Z,105
2017-04-09T16:10:44.541Z,105
2017-04-09T16:11:45.975Z,100
2017-04-09T16:12:47.421Z,100
2017-04-09T16:13:48.859Z,100
2017-04-09T16:14:50.295Z,100
2017-04-09T16:15:51.744Z,100
2017-04-09T16:16:53.193Z,100
2017-04-09T16:17:54.630Z,95
2017-04-09T16:18:56.064Z,95
2017-04-09T16:19:57.505Z,95
2017-04-09T16:20:58.950Z,95
2017-04-09T16:22:00.379Z,95
2017-04-09T16:23:01.828Z,90
2017-04-09T16:24:03.259Z,90
2017-04-09T16:25:04.695Z,90
2017-04-09T16:26:06.140Z,90
2017-04-09T16:27:07.587Z,90
2017-04-09T16:28:09.026Z,90
2017-04-09T16:29:10.501Z,85
2017-04-09T16:30:11.942Z,85
2017-04-09T16:31:13.383Z,90
2017-04-09T16:32:14.823Z,90
2017-04-09T16:33:16.249Z,85
2017-04-09T16:34:17.690Z,80
2017-04-09T16:35:19.138Z,80
2017-04-09T16:36:20.580Z,30
2017-04-09T16:37:22.020Z,85
2017-04-09T16:38:23.461Z,90
2017-04-09T16:39:24.897Z,95
2017-04-09T16:40:26.335Z,80
2017-04-09T16:41:27.774Z,80
2017-04-09T16:42:29.245Z,140
2017-04-09T16:43:30.687Z,245
2017-04-09T16:44:32.131Z,205
2017-04-09T16:45:33.573Z,90
2017-04-09T16:46:35.799Z,75
2017-04-09T16:47:37.233Z,70
2017-04-09T16:48:38.675Z,70
2017-04-09T16:49:40.112Z,70
2017-04-09T16:50:41.547Z,70
2017-04-09T16:51:42.988Z,70
2017-04-09T16:52:44.431Z,65
2017-04-09T16:53:45.891Z,65
2017-04-09T16:54:47.339Z,65
2017-04-09T16:55:48.781Z,65
2017-04-09T16:56:50.221Z,60
2017-04-09T16:57:51.662Z,60
2017-04-09T16:58:53.103Z,60
2017-04-09T16:59:54.536Z,60
2017-04-09T17:00:55.979Z,60
2017-04-09T17:01:57.417Z,60
2017-04-09T17:02:58.860Z,55
2017-04-09T17:04:00.287Z,55
2017-04-09T17:05:01.732Z,55
2017-04-09T17:06:03.181Z,55
2017-04-09T17:07:04.613Z,55
2017-04-09T17:08:06.065Z,80
2017-04-09T17:09:07.495Z,100
2017-04-09T17:10:08.933Z,75
2017-04-09T17:11:10.373Z,70
2017-04-09T17:12:11.826Z,60
2017-04-09T17:13:13.269Z,50
2017-04-09T17:14:14.709Z,50
2017-04-09T17:15:16.154Z,45
2017-04-09T17:16:17.588Z,45
2017-04-09T17:17:19.040Z,45
2017-04-09T17:18:20.486Z,45
2017-04-09T17:19:21.939Z,40
2017-04-09T17:20:23.384Z,40
2017-04-09T17:21:24.820Z,40
2017-04-09T17:22:26.261Z,40
2017-04-09T17:23:27.696Z,40
2017-04-09T17:24:29.127Z,40
2017-04-09T17:25:30.568Z,40
2017-04-09T17:26:31.997Z,40
2017-04-09T17:27:33.438Z,35
2017-04-09T17:28:34.874Z,35
2017-04-09T17:29:36.310Z,35
2017-04-09T17:30:37.760Z,35
2017-04-09T17:31:39.211Z,30
2017-04-09T17:32:41.620Z,30
2017-04-09T17:33:43.060Z,30
2017-04-09T17:34:45.346Z,30
2017-04-09T17:35:47.530Z,30
2017-04-09T17:36:49.626Z,30
2017-04-09T17:37:51.066Z,25
2017-04-09T17:38:53.052Z,25
2017-04-09T17:39:54.489Z,25
2017-04-09T17:40:55.929Z,25
2017-04-09T17:41:57.373Z,25
2017-04-09T17:42:59.484Z,25
2017-04-09T17:44:00.931Z,20
2017-04-09T17:45:03.147Z,20
2017-04-09T17:46:04.594Z,20
2017-04-09T17:47:07.017Z,20
2017-04-09T17:48:08.688Z,20
2017-04-09T17:49:10.124Z,20
2017-04-09T17:50:12.093Z,15
2017-04-09T17:51:13.531Z,15
2017-04-09T17:52:14.972Z,15
2017-04-09T17:53:17.010Z,15
2017-04-09T17:54:18.444Z,15
2017-04-09T17:55:19.881Z,15
2017-04-09T17:56:21.986Z,15
2017-04-09T17:57:23.359Z,10
2017-04-09T17:58:24.805Z,10
2017-04-09T17:59:26.958Z,10
2017-04-09T18:00:28.215Z,10
2017-04-09T18:01:29.657Z,10
2017-04-09T18:02:31.096Z,10
2017-04-09T18:03:33.464Z,10
2017-04-09T18:04:33.961Z,10
2017-04-09T18:05:35.397Z,5
2017-04-09T18:06:36.841Z,5
2017-04-09T18:07:39.082Z,5
2017-04-09T18:08:40.533Z,5
2017-04-09T18:09:42.962Z,5
2017-04-09T18:10:44.316Z,5
2017-04-09T18:11:45.758Z,5
2017-04-09T18:12:47.866Z,5
2017-04-09T18:13:49.304Z,5
2017-04-09T18:14:50.745Z,0
2017-04-09T18:15:52.949Z,0
2017-04-09T18:16:54.380Z,0
2017-04-09T18:17:56.534Z,0
2017-04-09T18:18:57.972Z,0
2017-04-09T18:19:59.419Z,0
2017-04-09T18:21:01.541Z,0
2017-04-09T18:22:02.990Z,0
2017-04-09T18:23:04.424Z,0
2017-04-09T18:24:06.731Z,0
2017-04-09T18:25:08.165Z,0
2017-04-09T18:26:10.538Z,0
2017-04-09T18:27:11.970Z,0
2017-04-09T18:28:13.413Z,0
2017-04-09T18:29:15.395Z,0
2017-04-09T18:30:16.827Z,0
2017-04-09T18:31:18.905Z,0
2017-04-09T18:32:20.343Z,0
2017-04-09T18:33:21.778Z,0
2017-04-09T18:34:23.218Z,0
2017-04-09T18:35:25.316Z,0
2017-04-09T18:36:26.759Z,0
2017-04-09T18:37:29.019Z,0
2017-04-09T18:38:30.492Z,0
2017-04-09T18:39:31.924Z,0
2017-04-09T18:40:34.289Z,0
2017-04-09T18:41:35.722Z,0
2017-04-09T18:42:38.097Z,0
2017-04-09T18:43:39.543Z,0
2017-04-09T18:44:41.602Z,0
2017-04-09T18:45:43.031Z,0
2017-04-09T18:46:44.466Z,0
2017-04-09T18:47:46.909Z,0
2017-04-09T18:48:48.346Z,0
2017-04-09T18:49:50.517Z,0
2017-04-09T18:50:51.962Z,0
2017-04-09T18:51:54.330Z,0
2017-04-09T18:52:55.773Z,0
2017-04-09T18:53:57.940Z,0
2017-04-09T18:54:59.362Z,0
2017-04-09T18:56:01.329Z,0
2017-04-09T18:57:03.284Z,0
2017-04-09T18:58:05.446Z,0
2017-04-09T18:59:06.890Z,0
2017-04-09T19:00:09.242Z,0
2017-04-09T19:01:10.681Z,0
2017-04-09T19:02:12.736Z,0
2017-04-09T19:03:14.171Z,0
2017-04-09T19:04:15.604Z,0
2017-04-09T19:05:17.742Z,0
2017-04-09T19:06:19.719Z,0
2017-04-09T19:07:22.269Z,0
2017-04-09T19:08:25.588Z,0
2017-04-09T19:09:26.410Z,0
2017-04-09T19:10:27.844Z,0
2017-04-09T19:11:32.090Z,0
